Observations for CATANIA FONTANAROSA, Italy (LICC)

LICC 100220Z 27020KT CAVOK 15/08 Q1012  
LICC 100150Z 28021KT CAVOK 16/09 Q1012  
LICC 100120Z 27020KT CAVOK 15/09 Q1012  
LICC 100050Z 27022KT CAVOK 15/09 Q1012  
LICC 100020Z 27023KT CAVOK 15/09 Q1012  
LICC 092350Z 26022KT CAVOK 15/09 Q1012  
LICC 092320Z 26020KT CAVOK 15/09 Q1013  
LICC 092250Z 26018KT CAVOK 14/09 Q1013  
LICC 092220Z 26014G26KT CAVOK 15/09 Q1014   
LICC 092150Z 27016KT CAVOK 15/09 Q1014  
LICC 092120Z 26011KT CAVOK 15/09 Q1014  
LICC 092050Z 27011KT CAVOK 14/09 Q1014  
LICC 092020Z 26016KT CAVOK 15/09 Q1015  
LICC 091950Z 26014KT CAVOK 15/09 Q1015  
LICC 091920Z 27009KT CAVOK 15/09 Q1015  
LICC 091850Z 28011KT CAVOK 15/09 Q1015  
LICC 091820Z 27015KT CAVOK 16/10 Q1015  
LICC 091750Z 25012KT CAVOK 14/10 Q1015  
LICC 091720Z 24014KT CAVOK 15/09 Q1014  
LICC 091650Z 24016KT CAVOK 16/09 Q1014  
LICC 091620Z 25017KT CAVOK 16/09 Q1014  
LICC 091550Z 27016KT CAVOK 17/08 Q1014  
LICC 091520Z 27015KT CAVOK 18/09 Q1015  
LICC 091450Z 27011KT CAVOK 19/09 Q1015  
LICC 091420Z 28013KT CAVOK 20/08 Q1015  
LICC 091350Z 27011KT CAVOK 20/08 Q1015  
LICC 091320Z 27011KT 9999 FEW030 20/08 Q1015
LICC 091250Z 27016KT CAVOK 19/08 Q1015  
LICC 091220Z 25017KT CAVOK 19/08 Q1016  
LICC 091150Z 25022KT CAVOK 18/08 Q1016  
LICC 091120Z 25016KT CAVOK 19/07 Q1016  
LICC 091050Z 23014KT CAVOK 18/09 Q1017  
LICC 091020Z 24016KT CAVOK 18/08 Q1018  
LICC 090950Z 24012KT CAVOK 17/08 Q1018  
LICC 090920Z 26012KT CAVOK 17/09 Q1019  
LICC 090850Z 26011KT CAVOK 16/09 Q1019  
LICC 090820Z 28008KT CAVOK 16/07 Q1019  
LICC 090750Z 30010KT CAVOK 15/07 Q1019  
LICC 090720Z 28009KT CAVOK 13/07 Q1018  
LICC 090650Z 28007KT CAVOK 11/07 Q1018  
LICC 090620Z 27010KT CAVOK 12/06 Q1018  
LICC 090550Z 30004KT 260V330 CAVOK 10/06 Q1018  
LICC 090520Z 30004KT 270V360 CAVOK 11/06 Q1018  
LICC 090450Z 23008KT CAVOK 11/06 Q1017  
LICC 090420Z 22010KT CAVOK 11/07 Q1017  
LICC 090350Z 28008KT CAVOK 11/07 Q1017  
LICC 090320Z 26008KT CAVOK 11/06 Q1017  
LICC 090250Z 25006KT CAVOK 10/06 Q1017  
LICC 090220Z 27006KT 210V310 CAVOK 11/06 Q1017  
LICC 090150Z 28011KT CAVOK 12/07 Q1017